Koewacht, Netherlands
Current Conditions -  °F | °C
As of 2:20 PM on Saturday 25 Oct 2014 (Local Time) from EBAW Reporting Station
Broken Clouds Broken Clouds  
Wind Chill: 57°   Ceiling: 3000
Heat Index: 57°   Visibility: 5mi
Dew Point: 54°   Wind: 6mph
Humidity: 88%   Direction: 240°WSW
Pressure: 30.09"   Gusts: NA
Location:  51.23°N, 3.97°E
Report Text: EBAW 251220Z 24005KT 210V270 8000 FEW010 BKN030 14/12 Q1019 NOSIG
Loading
Personal Weather Stations






























Interactive Weather Map
Tropical Storm Tracking
New forecast layout! Learn more

10-Day Weather Forecast

Advertisements
Track Severe Weather on mobile